Time,TemperatureF,DewpointF,PressureIn,WindDirection,WindDirectionDegrees,WindSpeedMPH,WindSpeedGustMPH,Humidity,HourlyPrecipIn,Conditions,Clouds,dailyrainin,SolarRadiationWatts/m^2,SoftwareType,DateUTC
2013-01-31 00:00:00,33.7,28.5,29.22,West,278,17.4,25.3,81,0.00,-RA,,0.00,0.0,WeatherDisplay:10.37,2013-01-31 05:00:00,
2013-01-31 00:03:00,33.5,28.3,29.24,West,277,14.6,26.5,81,0.00,-RA,,0.00,0.0,WeatherDisplay:10.37,2013-01-31 05:03:00,
2013-01-31 00:08:00,33.2,27.7,29.24,WNW,292,28.0,28.0,80,0.00,-RA,,0.00,0.0,WeatherDisplay:10.37,2013-01-31 05:08:00,
2013-01-31 00:13:00,33.1,26.7,29.24,NW,319,24.0,27.0,77,0.00,-RA,,0.00,0.0,WeatherDisplay:10.37,2013-01-31 05:13:00,
2013-01-31 00:18:00,32.9,26.2,29.25,WNW,287,16.8,18.4,76,0.00,-RA,,0.00,0.0,WeatherDisplay:10.37,2013-01-31 05:18:00,
2013-01-31 00:23:00,32.7,25.3,29.25,WNW,291,19.8,19.8,74,0.00,-RA,,0.00,0.0,WeatherDisplay:10.37,2013-01-31 05:23:00,
2013-01-31 00:28:00,32.4,24.7,29.25,NW,311,24.6,26.5,73,0.00,-RA,,0.00,0.0,WeatherDisplay:10.37,2013-01-31 05:28:00,
2013-01-31 00:33:00,31.8,23.1,29.27,WSW,254,28.9,31.1,70,0.00,-RA,,0.00,0.0,WeatherDisplay:10.37,2013-01-31 05:33:00,
2013-01-31 00:38:00,31.5,22.8,29.27,WNW,295,21.0,26.5,70,0.00,-RA,,0.00,0.0,WeatherDisplay:10.37,2013-01-31 05:38:00,
2013-01-31 00:43:00,31.3,21.6,29.27,WNW,294,26.2,30.0,67,0.00,-RA,,0.00,0.0,WeatherDisplay:10.37,2013-01-31 05:43:00,
2013-01-31 00:48:00,31.0,21.0,29.29,WNW,289,26.1,26.1,66,0.00,-RA,,0.00,0.0,WeatherDisplay:10.37,2013-01-31 05:48:00,
2013-01-31 00:53:00,30.9,21.2,29.29,WNW,289,20.0,20.7,67,0.00,-RA,,0.00,0.0,WeatherDisplay:10.37,2013-01-31 05:53:00,
2013-01-31 00:58:00,30.7,20.7,29.29,WNW,291,25.3,25.3,66,0.00,-RA,,0.00,0.0,WeatherDisplay:10.37,2013-01-31 05:58:00,
2013-01-31 01:03:00,30.7,21.0,29.31,WSW,250,19.2,19.6,67,0.00,BKN,,0.00,0.0,WeatherDisplay:10.37,2013-01-31 06:03:00,
2013-01-31 01:08:00,30.6,20.9,29.31,SW,220,19.4,24.2,67,0.00,BKN,,0.00,0.0,WeatherDisplay:10.37,2013-01-31 06:08:00,
2013-01-31 01:13:00,30.4,21.1,29.31,NW,318,18.5,18.5,68,0.00,BKN,,0.00,0.0,WeatherDisplay:10.37,2013-01-31 06:13:00,
2013-01-31 01:18:00,30.1,20.5,29.32,NW,305,21.9,21.9,67,0.00,BKN,,0.00,0.0,WeatherDisplay:10.37,2013-01-31 06:18:00,
2013-01-31 01:23:00,30.1,19.7,29.32,WNW,302,25.8,27.0,65,0.00,BKN,,0.00,0.0,WeatherDisplay:10.37,2013-01-31 06:23:00,
2013-01-31 01:28:00,30.0,19.7,29.32,WNW,291,23.0,23.0,65,0.00,BKN,,0.00,0.0,WeatherDisplay:10.37,2013-01-31 06:28:00,
2013-01-31 01:33:00,29.8,19.5,29.33,WNW,288,14.9,16.1,65,0.00,BKN,,0.00,0.0,WeatherDisplay:10.37,2013-01-31 06:33:00,
2013-01-31 01:38:00,29.8,19.1,29.33,NW,304,15.3,16.1,64,0.00,BKN,,0.00,0.0,WeatherDisplay:10.37,2013-01-31 06:38:00,
2013-01-31 01:44:00,29.5,18.1,29.33,NNW,330,29.7,29.9,62,0.00,BKN,,0.00,0.0,WeatherDisplay:10.37,2013-01-31 06:44:00,
2013-01-31 01:49:00,29.4,18.0,29.34,West,264,16.2,18.4,62,0.00,BKN,,0.00,0.0,WeatherDisplay:10.37,2013-01-31 06:49:00,
2013-01-31 01:54:00,29.3,18.6,29.34,NW,320,20.9,28.8,64,0.00,BKN,,0.00,0.0,WeatherDisplay:10.37,2013-01-31 06:54:00,
2013-01-31 01:59:00,29.1,18.8,29.34,NW,306,18.7,24.2,65,0.00,BKN,,0.00,0.0,WeatherDisplay:10.37,2013-01-31 06:59:00,
2013-01-31 02:04:00,29.0,19.1,29.36,WNW,292,17.1,18.4,66,0.00,OVC,,0.00,0.0,WeatherDisplay:10.37,2013-01-31 07:04:00,
2013-01-31 02:09:00,29.0,19.4,29.36,West,260,15.5,19.6,67,0.00,OVC,,0.00,0.0,WeatherDisplay:10.37,2013-01-31 07:09:00,
2013-01-31 02:14:00,29.0,19.1,29.36,NNW,335,23.0,25.3,66,0.00,OVC,,0.00,0.0,WeatherDisplay:10.37,2013-01-31 07:14:00,
2013-01-31 02:19:00,29.0,19.1,29.36,WNW,299,17.7,18.4,66,0.00,OVC,,0.00,0.0,WeatherDisplay:10.37,2013-01-31 07:19:00,
2013-01-31 02:24:00,28.8,18.9,29.36,WNW,296,15.2,20.7,66,0.00,OVC,,0.00,0.0,WeatherDisplay:10.37,2013-01-31 07:24:00,
2013-01-31 02:29:00,28.8,19.2,29.36,WNW,288,15.9,16.1,67,0.00,OVC,,0.00,0.0,WeatherDisplay:10.37,2013-01-31 07:29:00,
2013-01-31 02:34:00,28.8,19.2,29.38,West,275,18.6,24.2,67,0.00,OVC,,0.00,0.0,WeatherDisplay:10.37,2013-01-31 07:34:00,
2013-01-31 02:39:00,28.7,19.1,29.38,WNW,301,13.5,16.1,67,0.00,OVC,,0.00,0.0,WeatherDisplay:10.37,2013-01-31 07:39:00,
2013-01-31 02:44:00,28.7,19.1,29.38,WNW,284,13.5,15.0,67,0.00,OVC,,0.00,0.0,WeatherDisplay:10.37,2013-01-31 07:44:00,
2013-01-31 02:49:00,28.8,19.2,29.39,WNW,298,11.9,16.1,67,0.00,OVC,,0.00,0.0,WeatherDisplay:10.37,2013-01-31 07:49:00,
2013-01-31 02:54:00,28.7,19.1,29.39,West,277,15.6,19.6,67,0.00,OVC,,0.00,0.0,WeatherDisplay:10.37,2013-01-31 07:54:00,
2013-01-31 02:59:00,28.7,18.4,29.39,NW,318,24.6,24.6,65,0.00,OVC,,0.00,0.0,WeatherDisplay:10.37,2013-01-31 07:59:00,
2013-01-31 03:04:00,28.5,18.2,29.40,NW,315,17.2,24.2,65,0.00,-SN,,0.00,0.0,WeatherDisplay:10.37,2013-01-31 08:04:00,
2013-01-31 03:09:00,28.5,18.2,29.40,WNW,291,17.1,18.4,65,0.00,-SN,,0.00,0.0,WeatherDisplay:10.37,2013-01-31 08:09:00,
2013-01-31 03:14:00,28.4,18.1,29.40,WNW,285,14.6,24.2,65,0.00,-SN,,0.00,0.0,WeatherDisplay:10.37,2013-01-31 08:14:00,
2013-01-31 03:19:00,28.5,18.6,29.40,West,264,15.2,18.4,66,0.00,-SN,,0.00,0.0,WeatherDisplay:10.37,2013-01-31 08:19:00,
2013-01-31 03:24:00,28.4,18.5,29.40,West,271,17.4,19.6,66,0.00,-SN,,0.00,0.0,WeatherDisplay:10.37,2013-01-31 08:24:00,
2013-01-31 03:29:00,28.4,18.5,29.40,WNW,291,14.1,15.0,66,0.00,-SN,,0.00,0.0,WeatherDisplay:10.37,2013-01-31 08:29:00,
2013-01-31 03:34:00,28.4,18.5,29.40,WNW,292,22.8,29.9,66,0.00,-SN,,0.00,0.0,WeatherDisplay:10.37,2013-01-31 08:34:00,
2013-01-31 03:39:00,28.4,18.1,29.40,NW,313,16.2,23.0,65,0.00,-SN,,0.00,0.0,WeatherDisplay:10.37,2013-01-31 08:39:00,
2013-01-31 03:44:00,28.2,17.9,29.40,WNW,292,25.1,27.0,65,0.00,-SN,,0.00,0.0,WeatherDisplay:10.37,2013-01-31 08:44:00,
2013-01-31 03:49:00,28.1,18.2,29.41,NW,325,17.5,20.7,66,0.00,-SN,,0.00,0.0,WeatherDisplay:10.37,2013-01-31 08:49:00,
2013-01-31 03:54:00,27.9,18.4,29.41,WNW,284,22.2,26.5,67,0.00,-SN,,0.00,0.0,WeatherDisplay:10.37,2013-01-31 08:54:00,
2013-01-31 03:59:00,27.9,17.6,29.41,WNW,291,15.5,15.5,65,0.00,-SN,,0.00,0.0,WeatherDisplay:10.37,2013-01-31 08:59:00,
2013-01-31 04:04:00,27.9,17.3,29.42,WNW,282,19.5,25.3,64,0.00,-SN,,0.00,0.0,WeatherDisplay:10.37,2013-01-31 09:04:00,
2013-01-31 04:09:00,27.8,17.6,29.42,North,352,23.1,27.0,65,0.00,-SN,,0.00,0.0,WeatherDisplay:10.37,2013-01-31 09:09:00,
2013-01-31 04:14:00,27.5,17.6,29.42,West,281,20.9,20.9,66,0.00,-SN,,0.00,0.0,WeatherDisplay:10.37,2013-01-31 09:14:00,
2013-01-31 04:19:00,27.2,17.7,29.43,WNW,291,23.4,25.3,67,0.00,-SN,,0.00,0.0,WeatherDisplay:10.37,2013-01-31 09:19:00,
2013-01-31 04:24:00,27.2,17.0,29.43,WNW,302,21.5,21.5,65,0.00,-SN,,0.00,0.0,WeatherDisplay:10.37,2013-01-31 09:24:00,
2013-01-31 04:29:00,27.0,16.8,29.43,NW,305,17.1,20.7,65,0.00,-SN,,0.00,0.0,WeatherDisplay:10.37,2013-01-31 09:29:00,
2013-01-31 04:34:00,27.0,17.1,29.44,SW,224,19.8,25.3,66,0.00,-SN,,0.00,0.0,WeatherDisplay:10.37,2013-01-31 09:34:00,
2013-01-31 04:39:00,27.0,16.4,29.44,West,280,17.0,25.3,64,0.00,-SN,,0.00,0.0,WeatherDisplay:10.37,2013-01-31 09:39:00,
2013-01-31 04:44:00,26.9,14.9,29.44,WNW,294,25.3,28.8,60,0.00,-SN,,0.00,0.0,WeatherDisplay:10.37,2013-01-31 09:44:00,
2013-01-31 04:49:00,26.9,14.9,29.45,SW,219,28.1,33.4,60,0.00,-SN,,0.00,0.0,WeatherDisplay:10.37,2013-01-31 09:49:00,
2013-01-31 04:54:00,26.9,15.2,29.45,WNW,291,16.6,19.6,61,0.00,-SN,,0.00,0.0,WeatherDisplay:10.37,2013-01-31 09:54:00,
2013-01-31 04:59:00,26.7,14.7,29.45,WNW,294,20.9,24.2,60,0.00,-SN,,0.00,0.0,WeatherDisplay:10.37,2013-01-31 09:59:00,
2013-01-31 05:04:00,26.7,14.7,29.46,WNW,294,14.8,19.5,60,0.00,-SN,,0.00,0.0,WeatherDisplay:10.37,2013-01-31 10:04:00,
2013-01-31 05:09:00,26.7,14.3,29.46,WNW,299,26.2,29.9,59,0.00,-SN,,0.00,0.0,WeatherDisplay:10.37,2013-01-31 10:09:00,
2013-01-31 05:14:00,26.6,14.6,29.46,NW,304,21.6,26.5,60,0.00,-SN,,0.00,0.0,WeatherDisplay:10.37,2013-01-31 10:14:00,
2013-01-31 05:19:00,26.6,14.6,29.47,WNW,284,12.2,24.2,60,0.00,-SN,,0.00,0.0,WeatherDisplay:10.37,2013-01-31 10:19:00,
2013-01-31 05:24:00,26.6,14.6,29.47,WNW,302,23.8,23.8,60,0.00,-SN,,0.00,0.0,WeatherDisplay:10.37,2013-01-31 10:24:00,
2013-01-31 05:29:00,26.4,14.4,29.47,West,272,23.0,24.2,60,0.00,-SN,,0.00,0.0,WeatherDisplay:10.37,2013-01-31 10:29:00,
2013-01-31 05:34:00,26.3,14.3,29.48,WNW,299,21.7,31.1,60,0.00,-SN,,0.00,0.0,WeatherDisplay:10.37,2013-01-31 10:34:00,
2013-01-31 05:39:00,26.3,14.7,29.48,West,280,15.0,24.2,61,0.00,-SN,,0.00,0.0,WeatherDisplay:10.37,2013-01-31 10:39:00,
2013-01-31 05:44:00,26.3,15.0,29.48,NW,305,11.6,11.6,62,0.00,-SN,,0.00,0.0,WeatherDisplay:10.37,2013-01-31 10:44:00,
2013-01-31 05:49:00,26.1,15.2,29.49,WNW,291,15.1,18.4,63,0.00,-SN,,0.00,0.0,WeatherDisplay:10.37,2013-01-31 10:49:00,
2013-01-31 05:54:00,25.8,16.3,29.49,NW,306,12.9,12.9,67,0.00,-SN,,0.00,0.0,WeatherDisplay:10.37,2013-01-31 10:54:00,
2013-01-31 05:59:00,25.6,16.5,29.49,WNW,302,10.8,15.0,68,0.00,-SN,,0.00,0.0,WeatherDisplay:10.37,2013-01-31 10:59:00,
2013-01-31 06:04:00,25.4,16.6,29.50,West,265,14.4,19.6,69,0.00,-SN,,0.00,0.0,WeatherDisplay:10.37,2013-01-31 11:04:00,
2013-01-31 06:09:00,25.4,17.0,29.50,WNW,292,11.6,11.6,70,0.00,-SN,,0.00,0.0,WeatherDisplay:10.37,2013-01-31 11:09:00,
2013-01-31 06:14:00,25.3,16.9,29.50,WNW,294,10.1,15.0,70,0.00,-SN,,0.00,0.0,WeatherDisplay:10.37,2013-01-31 11:14:00,
2013-01-31 06:19:00,25.3,16.9,29.51,NNW,329,8.5,11.5,70,0.00,-SN,,0.00,0.0,WeatherDisplay:10.37,2013-01-31 11:19:00,
2013-01-31 06:24:00,25.3,17.2,29.51,WNW,291,10.3,10.3,71,0.00,-SN,,0.00,0.0,WeatherDisplay:10.37,2013-01-31 11:24:00,
2013-01-31 06:29:00,25.3,17.9,29.51,WNW,285,6.4,8.1,73,0.00,-SN,,0.00,0.0,WeatherDisplay:10.37,2013-01-31 11:29:00,
2013-01-31 06:34:00,24.4,18.8,29.52,WSW,254,10.4,19.6,79,0.00,-SN,,0.00,0.0,WeatherDisplay:10.37,2013-01-31 11:34:00,
2013-01-31 06:39:00,23.8,19.4,29.52,WNW,288,13.7,16.1,83,0.00,-SN,,0.00,0.0,WeatherDisplay:10.37,2013-01-31 11:39:00,
2013-01-31 06:44:00,23.8,19.7,29.52,WNW,296,10.5,15.0,84,0.00,-SN,,0.00,0.0,WeatherDisplay:10.37,2013-01-31 11:44:00,
2013-01-31 06:49:00,23.8,19.9,29.52,NW,311,15.3,18.4,85,0.00,-SN,,0.00,0.0,WeatherDisplay:10.37,2013-01-31 11:49:00,
2013-01-31 06:54:00,23.5,19.9,29.52,WNW,292,14.2,14.2,86,0.00,-SN,,0.00,0.0,WeatherDisplay:10.37,2013-01-31 11:54:00,
2013-01-31 06:59:00,23.5,20.5,29.52,WNW,291,10.0,10.4,88,0.00,-SN,,0.00,0.0,WeatherDisplay:10.37,2013-01-31 11:59:00,
2013-01-31 07:04:00,23.3,20.5,29.54,West,268,9.9,12.0,89,0.00,-SN,,0.00,0.0,WeatherDisplay:10.37,2013-01-31 12:04:00,
2013-01-31 07:09:00,23.3,20.8,29.54,West,267,10.3,10.5,90,0.00,-SN,,0.00,0.0,WeatherDisplay:10.37,2013-01-31 12:09:00,
2013-01-31 07:14:00,23.2,20.7,29.54,WNW,296,13.7,13.7,90,0.00,-SN,,0.00,0.0,WeatherDisplay:10.37,2013-01-31 12:14:00,
2013-01-31 07:19:00,23.2,20.7,29.55,WNW,284,9.1,10.5,90,0.00,-SN,,0.00,0.0,WeatherDisplay:10.37,2013-01-31 12:19:00,
2013-01-31 07:24:00,23.0,20.5,29.55,NW,311,11.6,11.6,90,0.00,-SN,,0.00,0.0,WeatherDisplay:10.37,2013-01-31 12:24:00,
2013-01-31 07:29:00,23.0,20.5,29.55,NW,309,9.2,9.2,90,0.00,-SN,,0.00,0.0,WeatherDisplay:10.37,2013-01-31 12:29:00,
2013-01-31 07:34:00,22.9,20.1,29.56,WNW,294,6.0,8.1,89,0.00,-SN,,0.00,0.0,WeatherDisplay:10.37,2013-01-31 12:34:00,
2013-01-31 07:39:00,22.7,19.9,29.56,WNW,285,15.7,19.6,89,0.00,-SN,,0.00,0.0,WeatherDisplay:10.37,2013-01-31 12:39:00,
2013-01-31 07:44:00,22.9,19.9,29.56,WNW,294,8.7,11.5,88,0.00,-SN,,0.00,0.0,WeatherDisplay:10.37,2013-01-31 12:44:00,
2013-01-31 07:49:00,22.9,19.9,29.57,NW,326,10.8,10.8,88,0.00,-SN,,0.00,0.0,WeatherDisplay:10.37,2013-01-31 12:49:00,
2013-01-31 07:54:00,22.9,19.6,29.57,WNW,288,10.3,15.0,87,0.00,-SN,,0.00,5.0,WeatherDisplay:10.37,2013-01-31 12:54:00,
2013-01-31 07:59:00,22.9,19.1,29.57,West,275,13.1,16.1,85,0.00,-SN,,0.00,5.0,WeatherDisplay:10.37,2013-01-31 12:59:00,
2013-01-31 08:04:00,23.0,18.6,29.58,WNW,295,11.7,12.0,83,0.00,-SN,,0.00,7.0,WeatherDisplay:10.37,2013-01-31 13:04:00,
2013-01-31 08:09:00,23.2,18.5,29.58,West,277,10.2,11.5,82,0.00,-SN,,0.00,5.0,WeatherDisplay:10.37,2013-01-31 13:09:00,
2013-01-31 08:14:00,23.2,18.2,29.58,WNW,298,4.7,9.2,81,0.00,-SN,,0.00,5.0,WeatherDisplay:10.37,2013-01-31 13:14:00,
2013-01-31 08:19:00,23.2,18.8,29.59,West,274,11.6,11.6,83,0.00,-SN,,0.00,9.0,WeatherDisplay:10.37,2013-01-31 13:19:00,
2013-01-31 08:24:00,23.0,19.2,29.59,West,280,7.6,10.4,85,0.00,-SN,,0.00,12.0,WeatherDisplay:10.37,2013-01-31 13:24:00,
2013-01-31 08:29:00,22.5,18.9,29.59,NW,304,15.9,16.1,86,0.00,-SN,,0.00,18.0,WeatherDisplay:10.37,2013-01-31 13:29:00,
2013-01-31 08:34:00,22.4,19.4,29.60,WNW,288,10.5,10.5,88,0.00,-SN,,0.00,12.0,WeatherDisplay:10.37,2013-01-31 13:34:00,
2013-01-31 08:39:00,22.4,19.6,29.60,West,263,6.5,10.4,89,0.00,-SN,,0.00,23.0,WeatherDisplay:10.37,2013-01-31 13:39:00,
2013-01-31 08:44:00,22.4,19.9,29.60,West,271,10.2,11.5,90,0.00,-SN,,0.00,33.0,WeatherDisplay:10.37,2013-01-31 13:44:00,
2013-01-31 08:49:00,22.4,19.6,29.61,West,267,10.7,16.1,89,0.00,-SN,,0.00,42.0,WeatherDisplay:10.37,2013-01-31 13:49:00,
2013-01-31 08:54:00,22.5,19.5,29.61,WNW,284,5.7,10.4,88,0.00,-SN,,0.00,53.0,WeatherDisplay:10.37,2013-01-31 13:54:00,
2013-01-31 08:59:00,22.5,18.7,29.61,West,267,15.9,15.9,85,0.00,-SN,,0.00,53.0,WeatherDisplay:10.37,2013-01-31 13:59:00,
2013-01-31 09:04:00,22.7,18.3,29.61,West,280,12.8,16.1,83,0.00,-SN,,0.00,69.0,WeatherDisplay:10.37,2013-01-31 14:04:00,
2013-01-31 09:09:00,22.7,17.7,29.61,WNW,294,11.9,16.5,81,0.00,-SN,,0.00,72.0,WeatherDisplay:10.37,2013-01-31 14:09:00,
2013-01-31 09:14:00,22.9,17.7,29.61,West,278,9.2,9.2,80,0.00,-SN,,0.00,69.0,WeatherDisplay:10.37,2013-01-31 14:14:00,
2013-01-31 09:19:00,23.2,17.9,29.62,West,268,7.0,10.5,80,0.00,-SN,,0.00,83.0,WeatherDisplay:10.37,2013-01-31 14:19:00,
2013-01-31 09:24:00,23.2,17.4,29.62,SSW,206,8.4,10.5,78,0.00,-SN,,0.00,79.0,WeatherDisplay:10.37,2013-01-31 14:24:00,
2013-01-31 09:29:00,23.3,16.9,29.62,WNW,282,6.4,8.1,76,0.00,-SN,,0.00,76.0,WeatherDisplay:10.37,2013-01-31 14:29:00,
2013-01-31 09:34:00,23.5,16.4,29.63,NW,304,10.6,10.6,74,0.00,-SN,,0.00,76.0,WeatherDisplay:10.37,2013-01-31 14:34:00,
2013-01-31 09:39:00,23.5,16.1,29.63,WNW,295,13.4,16.1,73,0.00,-SN,,0.00,97.0,WeatherDisplay:10.37,2013-01-31 14:39:00,
2013-01-31 09:44:00,23.5,15.5,29.63,WSW,253,9.1,16.1,71,0.00,-SN,,0.00,104.0,WeatherDisplay:10.37,2013-01-31 14:44:00,
2013-01-31 09:49:00,23.5,15.5,29.63,WNW,301,11.3,19.6,71,0.00,-SN,,0.00,109.0,WeatherDisplay:10.37,2013-01-31 14:49:00,
2013-01-31 09:54:00,23.6,15.6,29.63,West,280,12.3,12.3,71,0.00,-SN,,0.00,120.0,WeatherDisplay:10.37,2013-01-31 14:54:00,
2013-01-31 09:59:00,23.6,15.6,29.63,WSW,253,11.1,11.1,71,0.00,-SN,,0.00,109.0,WeatherDisplay:10.37,2013-01-31 14:59:00,
2013-01-31 10:04:00,23.8,15.4,29.64,West,261,7.1,10.5,70,0.00,OVC,,0.00,132.0,WeatherDisplay:10.37,2013-01-31 15:04:00,
2013-01-31 10:09:00,23.9,16.2,29.64,SW,224,10.4,12.0,72,0.00,OVC,,0.00,144.0,WeatherDisplay:10.37,2013-01-31 15:09:00,
2013-01-31 10:14:00,23.8,16.1,29.64,West,265,8.5,15.0,72,0.00,OVC,,0.00,146.0,WeatherDisplay:10.37,2013-01-31 15:14:00,
2013-01-31 10:19:00,23.9,16.5,29.65,WSW,247,12.2,15.0,73,0.00,OVC,,0.00,187.0,WeatherDisplay:10.37,2013-01-31 15:19:00,
2013-01-31 10:24:00,23.5,16.4,29.65,WNW,284,22.5,25.3,74,0.00,OVC,,0.00,77.0,WeatherDisplay:10.37,2013-01-31 15:24:00,
2013-01-31 10:29:00,22.5,17.3,29.65,West,281,15.8,18.4,80,0.00,OVC,,0.00,97.0,WeatherDisplay:10.37,2013-01-31 15:29:00,
2013-01-31 10:34:00,22.2,17.8,29.66,WNW,289,8.6,9.2,83,0.00,OVC,,0.00,141.0,WeatherDisplay:10.37,2013-01-31 15:34:00,
2013-01-31 10:39:00,22.2,18.1,29.66,WNW,296,17.7,17.7,84,0.00,OVC,,0.00,88.0,WeatherDisplay:10.37,2013-01-31 15:39:00,
2013-01-31 10:44:00,22.4,17.7,29.66,WNW,298,14.6,19.6,82,0.00,OVC,,0.00,107.0,WeatherDisplay:10.37,2013-01-31 15:44:00,
2013-01-31 10:49:00,22.5,17.0,29.67,NW,305,10.8,10.8,79,0.00,OVC,,0.00,102.0,WeatherDisplay:10.37,2013-01-31 15:49:00,
2013-01-31 10:54:00,22.7,17.2,29.67,NW,306,7.0,10.4,79,0.00,OVC,,0.00,102.0,WeatherDisplay:10.37,2013-01-31 15:54:00,
2013-01-31 10:59:00,22.7,16.9,29.67,WNW,292,12.3,12.3,78,0.00,OVC,,0.00,125.0,WeatherDisplay:10.37,2013-01-31 15:59:00,
2013-01-31 11:04:00,23.0,15.3,29.67,NW,318,13.8,16.1,72,0.00,-SN,,0.00,171.0,WeatherDisplay:10.37,2013-01-31 16:04:00,
2013-01-31 11:09:00,23.5,14.1,29.67,NW,306,15.1,15.1,67,0.00,-SN,,0.00,141.0,WeatherDisplay:10.37,2013-01-31 16:09:00,
2013-01-31 11:14:00,23.5,13.5,29.67,West,281,12.3,16.1,65,0.00,-SN,,0.00,144.0,WeatherDisplay:10.37,2013-01-31 16:14:00,
2013-01-31 11:19:00,23.6,13.2,29.68,WNW,289,13.9,18.4,64,0.00,-SN,,0.00,194.0,WeatherDisplay:10.37,2013-01-31 16:19:00,
2013-01-31 11:24:00,23.6,13.2,29.68,WNW,291,17.6,20.7,64,0.00,-SN,,0.00,150.0,WeatherDisplay:10.37,2013-01-31 16:24:00,
2013-01-31 11:29:00,23.6,14.2,29.68,WNW,301,13.4,13.4,67,0.00,-SN,,0.00,91.0,WeatherDisplay:10.37,2013-01-31 16:29:00,
2013-01-31 11:34:00,22.5,15.8,29.69,West,260,20.0,20.7,75,0.00,-SN,,0.00,69.0,WeatherDisplay:10.37,2013-01-31 16:34:00,
2013-01-31 11:39:00,21.6,17.0,29.69,WNW,301,15.2,15.2,82,0.00,-SN,,0.00,366.0,WeatherDisplay:10.37,2013-01-31 16:39:00,
2013-01-31 11:44:00,22.5,17.5,29.69,WNW,296,11.2,11.5,81,0.00,-SN,,0.00,378.0,WeatherDisplay:10.37,2013-01-31 16:44:00,
2013-01-31 11:49:00,23.0,16.9,29.69,NW,305,8.9,15.0,77,0.00,-SN,,0.00,355.0,WeatherDisplay:10.37,2013-01-31 16:49:00,
2013-01-31 11:54:00,23.2,15.2,29.69,WNW,289,15.9,25.3,71,0.00,-SN,,0.00,178.0,WeatherDisplay:10.37,2013-01-31 16:54:00,
2013-01-31 11:59:00,22.7,14.4,29.69,NW,304,15.3,20.7,70,0.00,-SN,,0.00,274.0,WeatherDisplay:10.37,2013-01-31 16:59:00,
2013-01-31 12:04:00,22.9,14.6,29.69,NW,312,16.2,20.7,70,0.00,OVC,,0.00,259.0,WeatherDisplay:10.37,2013-01-31 17:04:00,
2013-01-31 12:09:00,22.9,13.9,29.69,NW,325,16.3,24.2,68,0.00,OVC,,0.00,179.0,WeatherDisplay:10.37,2013-01-31 17:09:00,
2013-01-31 12:14:00,22.9,13.9,29.69,WSW,256,13.7,16.1,68,0.00,OVC,,0.00,174.0,WeatherDisplay:10.37,2013-01-31 17:14:00,
2013-01-31 12:19:00,22.7,13.4,29.70,WNW,288,16.5,18.0,67,0.00,OVC,,0.00,167.0,WeatherDisplay:10.37,2013-01-31 17:19:00,
2013-01-31 12:24:00,22.7,13.4,29.70,WNW,287,18.4,19.6,67,0.00,OVC,,0.00,151.0,WeatherDisplay:10.37,2013-01-31 17:24:00,
2013-01-31 12:29:00,22.4,13.4,29.70,WNW,299,16.4,19.6,68,0.00,OVC,,0.00,127.0,WeatherDisplay:10.37,2013-01-31 17:29:00,
2013-01-31 12:34:00,22.2,13.2,29.70,WSW,241,19.5,19.6,68,0.00,OVC,,0.00,93.0,WeatherDisplay:10.37,2013-01-31 17:34:00,
2013-01-31 12:39:00,22.2,13.9,29.70,WNW,291,18.6,23.0,70,0.00,OVC,,0.00,111.0,WeatherDisplay:10.37,2013-01-31 17:39:00,
2013-01-31 12:44:00,22.2,14.2,29.70,WNW,287,14.4,19.5,71,0.00,OVC,,0.00,169.0,WeatherDisplay:10.37,2013-01-31 17:44:00,
2013-01-31 12:49:00,22.2,14.2,29.71,West,260,15.3,15.3,71,0.00,OVC,,0.00,183.0,WeatherDisplay:10.37,2013-01-31 17:49:00,
2013-01-31 12:54:00,22.2,13.9,29.71,West,267,15.7,16.1,70,0.00,OVC,,0.00,220.0,WeatherDisplay:10.37,2013-01-31 17:54:00,
2013-01-31 12:59:00,22.4,13.8,29.71,WNW,291,15.6,19.6,69,0.00,OVC,,0.00,160.0,WeatherDisplay:10.37,2013-01-31 17:59:00,
2013-01-31 13:04:00,22.5,13.5,29.71,WNW,288,12.0,12.0,68,0.00,-SN,,0.00,107.0,WeatherDisplay:10.37,2013-01-31 18:04:00,
2013-01-31 13:09:00,22.4,13.8,29.71,SW,222,12.8,15.0,69,0.00,-SN,,0.00,195.0,WeatherDisplay:10.37,2013-01-31 18:09:00,
2013-01-31 13:14:00,22.7,13.0,29.71,West,274,15.3,21.0,66,0.00,-SN,,0.00,199.0,WeatherDisplay:10.37,2013-01-31 18:14:00,
2013-01-31 13:19:00,22.9,13.2,29.71,WNW,289,11.3,18.4,66,0.00,-SN,,0.00,150.0,WeatherDisplay:10.37,2013-01-31 18:19:00,
2013-01-31 13:24:00,22.5,13.2,29.71,WNW,284,11.5,16.1,67,0.00,-SN,,0.00,165.0,WeatherDisplay:10.37,2013-01-31 18:24:00,
2013-01-31 13:29:00,22.5,13.5,29.71,NW,316,12.2,12.2,68,0.00,-SN,,0.00,206.0,WeatherDisplay:10.37,2013-01-31 18:29:00,
2013-01-31 13:34:00,23.0,13.7,29.71,WNW,282,11.9,19.6,67,0.00,-SN,,0.00,160.0,WeatherDisplay:10.37,2013-01-31 18:34:00,
2013-01-31 13:39:00,22.9,13.9,29.71,WNW,292,10.9,16.5,68,0.00,-SN,,0.00,141.0,WeatherDisplay:10.37,2013-01-31 18:39:00,
2013-01-31 13:44:00,22.1,14.8,29.71,West,275,11.7,11.7,73,0.00,-SN,,0.00,139.0,WeatherDisplay:10.37,2013-01-31 18:44:00,
2013-01-31 13:49:00,21.9,14.9,29.72,NW,304,18.1,19.6,74,0.00,-SN,,0.00,109.0,WeatherDisplay:10.37,2013-01-31 18:49:00,
2013-01-31 13:54:00,21.9,14.9,29.72,WNW,301,11.3,11.3,74,0.00,-SN,,0.00,139.0,WeatherDisplay:10.37,2013-01-31 18:54:00,
2013-01-31 13:59:00,22.1,14.4,29.72,WNW,288,17.3,18.4,72,0.00,-SN,,0.00,97.0,WeatherDisplay:10.37,2013-01-31 18:59:00,
2013-01-31 14:04:00,21.9,14.6,29.73,NW,311,14.3,18.0,73,0.00,-SN,,0.00,128.0,WeatherDisplay:10.37,2013-01-31 19:04:00,
2013-01-31 14:09:00,22.2,14.9,29.73,West,271,10.0,10.4,73,0.00,-SN,,0.00,120.0,WeatherDisplay:10.37,2013-01-31 19:09:00,
2013-01-31 14:14:00,22.4,15.1,29.73,WNW,289,13.0,13.0,73,0.00,-SN,,0.00,114.0,WeatherDisplay:10.37,2013-01-31 19:14:00,
2013-01-31 14:19:00,22.2,15.2,29.73,West,281,11.0,11.0,74,0.00,-SN,,0.00,118.0,WeatherDisplay:10.37,2013-01-31 19:19:00,
2013-01-31 14:24:00,21.9,16.1,29.73,WNW,292,11.4,11.5,78,0.00,-SN,,0.00,192.0,WeatherDisplay:10.37,2013-01-31 19:24:00,
2013-01-31 14:29:00,22.2,16.4,29.73,West,270,9.5,12.0,78,0.00,-SN,,0.00,167.0,WeatherDisplay:10.37,2013-01-31 19:29:00,
2013-01-31 14:34:00,22.2,16.1,29.73,NW,319,5.8,8.1,77,0.00,-SN,,0.00,121.0,WeatherDisplay:10.37,2013-01-31 19:34:00,
2013-01-31 14:39:00,22.5,15.5,29.73,NW,313,14.0,16.1,74,0.00,-SN,,0.00,118.0,WeatherDisplay:10.37,2013-01-31 19:39:00,
2013-01-31 14:44:00,22.7,15.0,29.73,WNW,294,13.7,15.0,72,0.00,-SN,,0.00,116.0,WeatherDisplay:10.37,2013-01-31 19:44:00,
2013-01-31 14:49:00,22.9,14.9,29.73,WNW,292,14.0,15.0,71,0.00,-SN,,0.00,114.0,WeatherDisplay:10.37,2013-01-31 19:49:00,
2013-01-31 14:54:00,22.9,14.6,29.73,WNW,282,9.3,16.1,70,0.00,-SN,,0.00,60.0,WeatherDisplay:10.37,2013-01-31 19:54:00,
2013-01-31 14:59:00,23.0,14.7,29.73,WNW,282,5.4,6.0,70,0.00,-SN,,0.00,51.0,WeatherDisplay:10.37,2013-01-31 19:59:00,
2013-01-31 15:04:00,23.0,14.7,29.73,West,274,8.9,15.0,70,0.00,-SN,,0.00,63.0,WeatherDisplay:10.37,2013-01-31 20:04:00,
2013-01-31 15:09:00,22.7,14.7,29.73,WNW,299,9.8,10.5,71,0.00,-SN,,0.00,91.0,WeatherDisplay:10.37,2013-01-31 20:09:00,
2013-01-31 15:14:00,22.7,14.4,29.73,NW,305,10.1,11.5,70,0.00,-SN,,0.00,62.0,WeatherDisplay:10.37,2013-01-31 20:14:00,
2013-01-31 15:19:00,22.9,14.9,29.74,SSW,210,11.3,11.5,71,0.00,-SN,,0.00,42.0,WeatherDisplay:10.37,2013-01-31 20:19:00,
2013-01-31 15:24:00,22.7,14.4,29.74,SW,227,13.3,13.3,70,0.00,-SN,,0.00,35.0,WeatherDisplay:10.37,2013-01-31 20:24:00,
2013-01-31 15:29:00,22.4,14.7,29.74,WSW,257,14.2,15.0,72,0.00,-SN,,0.00,37.0,WeatherDisplay:10.37,2013-01-31 20:29:00,
2013-01-31 15:34:00,22.5,14.5,29.75,WNW,287,14.8,14.8,71,0.00,-SN,,0.00,67.0,WeatherDisplay:10.37,2013-01-31 20:34:00,
2013-01-31 15:39:00,22.4,14.7,29.75,West,270,9.8,12.0,72,0.00,-SN,,0.00,67.0,WeatherDisplay:10.37,2013-01-31 20:39:00,
2013-01-31 15:44:00,22.2,14.9,29.75,WSW,253,7.2,9.0,73,0.00,-SN,,0.00,39.0,WeatherDisplay:10.37,2013-01-31 20:44:00,
2013-01-31 15:49:00,22.1,15.1,29.75,NW,311,16.1,16.1,74,0.00,-SN,,0.00,26.0,WeatherDisplay:10.37,2013-01-31 20:49:00,
2013-01-31 15:54:00,21.9,14.9,29.75,West,277,7.0,10.4,74,0.00,-SN,,0.00,26.0,WeatherDisplay:10.37,2013-01-31 20:54:00,
2013-01-31 15:59:00,21.6,15.5,29.75,West,280,9.8,10.4,77,0.00,-SN,,0.00,28.0,WeatherDisplay:10.37,2013-01-31 20:59:00,
2013-01-31 16:04:00,21.4,16.2,29.76,WNW,294,7.1,9.2,80,0.00,-SN,,0.00,111.0,WeatherDisplay:10.37,2013-01-31 21:04:00,
2013-01-31 16:09:00,21.4,16.5,29.76,WNW,287,9.2,9.2,81,0.00,-SN,,0.00,63.0,WeatherDisplay:10.37,2013-01-31 21:09:00,
2013-01-31 16:14:00,21.6,16.4,29.76,WSW,240,9.3,10.5,80,0.00,-SN,,0.00,76.0,WeatherDisplay:10.37,2013-01-31 21:14:00,
2013-01-31 16:19:00,21.8,16.0,29.76,WNW,285,8.0,10.5,78,0.00,-SN,,0.00,26.0,WeatherDisplay:10.37,2013-01-31 21:19:00,
2013-01-31 16:24:00,21.4,15.3,29.76,WNW,296,13.7,16.1,77,0.00,-SN,,0.00,23.0,WeatherDisplay:10.37,2013-01-31 21:24:00,
2013-01-31 16:29:00,21.0,15.8,29.76,West,270,12.9,12.9,80,0.00,-SN,,0.00,28.0,WeatherDisplay:10.37,2013-01-31 21:29:00,
2013-01-31 16:34:00,20.5,16.2,29.78,West,274,12.7,16.1,83,0.00,-SN,,0.00,28.0,WeatherDisplay:10.37,2013-01-31 21:34:00,
2013-01-31 16:39:00,20.5,16.4,29.78,NW,311,14.5,16.5,84,0.00,-SN,,0.00,51.0,WeatherDisplay:10.37,2013-01-31 21:39:00,
2013-01-31 16:44:00,20.6,16.3,29.78,WNW,284,21.6,26.5,83,0.00,-SN,,0.00,42.0,WeatherDisplay:10.37,2013-01-31 21:44:00,
2013-01-31 16:49:00,20.8,15.6,29.78,WNW,302,11.6,11.6,80,0.00,-SN,,0.00,39.0,WeatherDisplay:10.37,2013-01-31 21:49:00,
2013-01-31 16:54:00,20.8,15.6,29.78,WNW,282,11.4,11.5,80,0.00,-SN,,0.00,32.0,WeatherDisplay:10.37,2013-01-31 21:54:00,
2013-01-31 16:59:00,20.8,15.6,29.78,WNW,299,10.7,12.0,80,0.00,-SN,,0.00,35.0,WeatherDisplay:10.37,2013-01-31 21:59:00,
2013-01-31 17:04:00,21.0,15.8,29.78,WNW,296,7.8,9.2,80,0.00,-SN,,0.00,26.0,WeatherDisplay:10.37,2013-01-31 22:04:00,
2013-01-31 17:09:00,21.0,15.5,29.78,West,274,11.9,11.9,79,0.00,-SN,,0.00,23.0,WeatherDisplay:10.37,2013-01-31 22:09:00,
2013-01-31 17:14:00,20.8,14.7,29.78,NW,304,11.4,11.5,77,0.00,-SN,,0.00,21.0,WeatherDisplay:10.37,2013-01-31 22:14:00,
2013-01-31 17:19:00,20.8,14.4,29.78,NW,308,18.9,18.9,76,0.00,-SN,,0.00,18.0,WeatherDisplay:10.37,2013-01-31 22:19:00,
2013-01-31 17:24:00,20.6,13.9,29.78,West,263,17.2,18.4,75,0.00,-SN,,0.00,16.0,WeatherDisplay:10.37,2013-01-31 22:24:00,
2013-01-31 17:29:00,20.5,13.8,29.78,NW,313,13.4,15.0,75,0.00,-SN,,0.00,14.0,WeatherDisplay:10.37,2013-01-31 22:29:00,
2013-01-31 17:34:00,20.3,13.9,29.79,NW,309,13.8,15.0,76,0.00,-SN,,0.00,9.0,WeatherDisplay:10.37,2013-01-31 22:34:00,
2013-01-31 17:39:00,20.2,13.8,29.79,WNW,302,13.1,15.0,76,0.00,-SN,,0.00,7.0,WeatherDisplay:10.37,2013-01-31 22:39:00,
2013-01-31 17:44:00,20.2,13.5,29.79,WNW,285,7.8,10.4,75,0.00,-SN,,0.00,5.0,WeatherDisplay:10.37,2013-01-31 22:44:00,
2013-01-31 17:49:00,20.3,13.3,29.79,NW,305,8.9,10.4,74,0.00,-SN,,0.00,5.0,WeatherDisplay:10.37,2013-01-31 22:49:00,
2013-01-31 17:54:00,20.3,12.7,29.79,WSW,256,12.7,12.7,72,0.00,-SN,,0.00,0.0,WeatherDisplay:10.37,2013-01-31 22:54:00,
2013-01-31 17:59:00,20.3,12.7,29.79,WNW,298,12.7,12.7,72,0.00,-SN,,0.00,0.0,WeatherDisplay:10.37,2013-01-31 22:59:00,
2013-01-31 18:04:00,20.3,12.4,29.80,West,275,16.1,16.1,71,0.00,-SN,,0.00,0.0,WeatherDisplay:10.37,2013-01-31 23:04:00,
2013-01-31 18:09:00,20.3,12.1,29.80,WNW,298,10.8,12.0,70,0.00,-SN,,0.00,0.0,WeatherDisplay:10.37,2013-01-31 23:09:00,
2013-01-31 18:14:00,20.3,11.7,29.80,WNW,295,13.4,15.0,69,0.00,-SN,,0.00,0.0,WeatherDisplay:10.37,2013-01-31 23:14:00,
2013-01-31 18:19:00,20.3,11.7,29.81,WNW,287,12.0,15.0,69,0.00,-SN,,0.00,0.0,WeatherDisplay:10.37,2013-01-31 23:19:00,
2013-01-31 18:24:00,20.5,11.9,29.81,NW,315,12.0,12.0,69,0.00,-SN,,0.00,0.0,WeatherDisplay:10.37,2013-01-31 23:24:00,
2013-01-31 18:29:00,20.5,11.3,29.81,WNW,289,7.8,9.2,67,0.00,-SN,,0.00,0.0,WeatherDisplay:10.37,2013-01-31 23:29:00,
2013-01-31 18:34:00,20.3,11.1,29.81,WNW,302,11.4,11.4,67,0.00,-SN,,0.00,0.0,WeatherDisplay:10.37,2013-01-31 23:34:00,
2013-01-31 18:39:00,20.3,11.4,29.81,NNW,340,13.0,13.0,68,0.00,-SN,,0.00,0.0,WeatherDisplay:10.37,2013-01-31 23:39:00,
2013-01-31 18:44:00,20.3,11.4,29.81,West,281,9.3,9.3,68,0.00,-SN,,0.00,0.0,WeatherDisplay:10.37,2013-01-31 23:44:00,
2013-01-31 18:49:00,20.3,11.4,29.82,NW,312,8.1,8.1,68,0.00,-SN,,0.00,0.0,WeatherDisplay:10.37,2013-01-31 23:49:00,
2013-01-31 18:54:00,20.3,11.4,29.82,WSW,254,9.6,12.0,68,0.00,-SN,,0.00,0.0,WeatherDisplay:10.37,2013-01-31 23:54:00,
2013-01-31 18:59:00,20.2,11.7,29.82,WNW,296,7.2,10.4,69,0.00,-SN,,0.00,0.0,WeatherDisplay:10.37,2013-01-31 23:59:00,
2013-01-31 19:04:00,20.0,11.5,29.83,West,275,13.0,16.1,69,0.00,OVC,,0.00,0.0,WeatherDisplay:10.37,2013-02-01 00:04:00,
2013-01-31 19:09:00,19.9,11.0,29.83,NW,308,11.6,12.0,68,0.00,OVC,,0.00,0.0,WeatherDisplay:10.37,2013-02-01 00:09:00,
2013-01-31 19:14:00,19.7,10.8,29.83,WNW,299,13.1,16.1,68,0.00,OVC,,0.00,0.0,WeatherDisplay:10.37,2013-02-01 00:14:00,
2013-01-31 19:19:00,19.7,11.5,29.84,West,260,4.9,8.1,70,0.00,OVC,,0.00,0.0,WeatherDisplay:10.37,2013-02-01 00:19:00,
2013-01-31 19:24:00,19.5,11.3,29.84,WNW,282,9.9,15.0,70,0.00,OVC,,0.00,0.0,WeatherDisplay:10.37,2013-02-01 00:24:00,
2013-01-31 19:29:00,19.5,11.6,29.84,West,271,11.0,11.0,71,0.00,OVC,,0.00,0.0,WeatherDisplay:10.37,2013-02-01 00:29:00,
2013-01-31 19:34:00,19.4,11.5,29.84,WSW,240,12.0,13.5,71,0.00,OVC,,0.00,0.0,WeatherDisplay:10.37,2013-02-01 00:34:00,
2013-01-31 19:39:00,19.2,12.0,29.84,West,261,8.9,9.0,73,0.00,OVC,,0.00,0.0,WeatherDisplay:10.37,2013-02-01 00:39:00,
2013-01-31 19:44:00,19.2,12.6,29.84,WNW,294,9.6,11.5,75,0.00,OVC,,0.00,0.0,WeatherDisplay:10.37,2013-02-01 00:44:00,
2013-01-31 19:49:00,19.2,12.6,29.85,NW,306,6.5,6.5,75,0.00,OVC,,0.00,0.0,WeatherDisplay:10.37,2013-02-01 00:49:00,
2013-01-31 19:54:00,19.4,13.1,29.85,NNW,329,6.3,10.5,76,0.00,OVC,,0.00,0.0,WeatherDisplay:10.37,2013-02-01 00:54:00,
2013-01-31 19:59:00,19.2,12.6,29.85,WNW,292,11.4,11.4,75,0.00,OVC,,0.00,0.0,WeatherDisplay:10.37,2013-02-01 00:59:00,
2013-01-31 20:04:00,19.1,12.5,29.86,WNW,292,8.3,10.4,75,0.00,-SN,,0.00,0.0,WeatherDisplay:10.37,2013-02-01 01:04:00,
2013-01-31 20:09:00,19.2,12.6,29.86,WNW,287,10.4,12.0,75,0.00,-SN,,0.00,0.0,WeatherDisplay:10.37,2013-02-01 01:09:00,
2013-01-31 20:14:00,19.1,12.5,29.86,SW,226,11.3,11.3,75,0.00,-SN,,0.00,0.0,WeatherDisplay:10.37,2013-02-01 01:14:00,
2013-01-31 20:19:00,19.1,12.2,29.86,West,261,6.5,10.4,74,0.00,-SN,,0.00,0.0,WeatherDisplay:10.37,2013-02-01 01:19:00,
2013-01-31 20:24:00,19.1,12.2,29.86,WNW,301,11.6,16.5,74,0.00,-SN,,0.00,0.0,WeatherDisplay:10.37,2013-02-01 01:24:00,
2013-01-31 20:29:00,19.1,12.2,29.86,West,260,4.2,8.1,74,0.00,-SN,,0.00,0.0,WeatherDisplay:10.37,2013-02-01 01:29:00,
2013-01-31 20:34:00,18.9,12.3,29.87,WNW,301,7.2,8.1,75,0.00,-SN,,0.00,0.0,WeatherDisplay:10.37,2013-02-01 01:34:00,
2013-01-31 20:39:00,18.8,12.8,29.87,WNW,289,4.4,4.6,77,0.00,-SN,,0.00,0.0,WeatherDisplay:10.37,2013-02-01 01:39:00,
2013-01-31 20:44:00,18.6,12.9,29.87,West,265,5.1,5.1,78,0.00,-SN,,0.00,0.0,WeatherDisplay:10.37,2013-02-01 01:44:00,
2013-01-31 20:49:00,18.4,12.7,29.87,West,275,8.0,11.5,78,0.00,-SN,,0.00,0.0,WeatherDisplay:10.37,2013-02-01 01:49:00,
2013-01-31 20:54:00,18.3,12.9,29.87,WNW,295,7.3,10.4,79,0.00,-SN,,0.00,0.0,WeatherDisplay:10.37,2013-02-01 01:54:00,
2013-01-31 20:59:00,18.1,13.0,29.87,West,261,4.5,4.6,80,0.00,-SN,,0.00,0.0,WeatherDisplay:10.37,2013-02-01 01:59:00,
2013-01-31 21:04:00,18.0,12.9,29.88,NW,304,9.0,9.0,80,0.00,-SN,,0.00,0.0,WeatherDisplay:10.37,2013-02-01 02:04:00,
2013-01-31 21:09:00,17.8,12.4,29.88,West,281,16.3,16.3,79,0.00,-SN,,0.00,0.0,WeatherDisplay:10.37,2013-02-01 02:09:00,
2013-01-31 21:14:00,17.8,12.4,29.88,WNW,295,10.5,11.5,79,0.00,-SN,,0.00,0.0,WeatherDisplay:10.37,2013-02-01 02:14:00,
2013-01-31 21:19:00,17.8,12.7,29.88,West,271,4.7,8.1,80,0.00,-SN,,0.00,0.0,WeatherDisplay:10.37,2013-02-01 02:19:00,
2013-01-31 21:24:00,17.7,12.6,29.88,WNW,288,7.4,9.2,80,0.00,-SN,,0.00,0.0,WeatherDisplay:10.37,2013-02-01 02:24:00,
2013-01-31 21:29:00,17.7,12.6,29.88,WNW,285,3.9,10.4,80,0.00,-SN,,0.00,0.0,WeatherDisplay:10.37,2013-02-01 02:29:00,
2013-01-31 21:34:00,17.5,12.7,29.88,WSW,248,9.7,10.5,81,0.00,-SN,,0.00,0.0,WeatherDisplay:10.37,2013-02-01 02:34:00,
2013-01-31 21:39:00,17.3,12.7,29.88,WNW,292,6.7,9.2,82,0.00,-SN,,0.00,0.0,WeatherDisplay:10.37,2013-02-01 02:39:00,
2013-01-31 21:44:00,17.2,12.6,29.88,WNW,288,2.2,2.2,82,0.00,-SN,,0.00,0.0,WeatherDisplay:10.37,2013-02-01 02:44:00,
2013-01-31 21:49:00,17.2,12.9,29.89,WNW,282,5.9,12.0,83,0.00,-SN,,0.00,0.0,WeatherDisplay:10.37,2013-02-01 02:49:00,
2013-01-31 21:54:00,17.2,12.9,29.89,West,278,6.7,9.2,83,0.00,-SN,,0.00,0.0,WeatherDisplay:10.37,2013-02-01 02:54:00,
2013-01-31 21:59:00,17.0,12.7,29.89,WSW,241,9.2,12.0,83,0.00,-SN,,0.00,0.0,WeatherDisplay:10.37,2013-02-01 02:59:00,
2013-01-31 22:04:00,17.0,12.7,29.89,SW,229,9.2,10.4,83,0.00,-SN,,0.00,0.0,WeatherDisplay:10.37,2013-02-01 03:04:00,
2013-01-31 22:09:00,17.0,12.5,29.89,WNW,285,5.3,8.1,82,0.00,-SN,,0.00,0.0,WeatherDisplay:10.37,2013-02-01 03:09:00,
2013-01-31 22:14:00,17.0,12.5,29.89,WNW,299,8.6,10.5,82,0.00,-SN,,0.00,0.0,WeatherDisplay:10.37,2013-02-01 03:14:00,
2013-01-31 22:19:00,17.0,12.5,29.90,North,349,5.9,8.1,82,0.00,-SN,,0.00,0.0,WeatherDisplay:10.37,2013-02-01 03:19:00,
2013-01-31 22:24:00,17.0,12.5,29.90,WNW,285,3.2,4.6,82,0.00,-SN,,0.00,0.0,WeatherDisplay:10.37,2013-02-01 03:24:00,
2013-01-31 22:29:00,17.0,12.7,29.90,West,265,7.0,11.5,83,0.00,-SN,,0.00,0.0,WeatherDisplay:10.37,2013-02-01 03:29:00,
2013-01-31 22:34:00,16.9,12.6,29.90,WNW,302,10.5,11.5,83,0.00,-SN,,0.00,0.0,WeatherDisplay:10.37,2013-02-01 03:34:00,
2013-01-31 22:39:00,16.9,12.9,29.90,WNW,291,4.9,9.0,84,0.00,-SN,,0.00,0.0,WeatherDisplay:10.37,2013-02-01 03:39:00,
2013-01-31 22:44:00,16.9,13.2,29.90,WNW,285,6.3,9.2,85,0.00,-SN,,0.00,0.0,WeatherDisplay:10.37,2013-02-01 03:44:00,
2013-01-31 22:49:00,16.9,13.2,29.90,WNW,294,5.4,15.0,85,0.00,-SN,,0.00,0.0,WeatherDisplay:10.37,2013-02-01 03:49:00,
2013-01-31 22:54:00,16.9,13.2,29.90,WNW,298,7.0,9.0,85,0.00,-SN,,0.00,0.0,WeatherDisplay:10.37,2013-02-01 03:54:00,
2013-01-31 22:59:00,16.9,13.2,29.90,SW,236,10.0,10.0,85,0.00,-SN,,0.00,0.0,WeatherDisplay:10.37,2013-02-01 03:59:00,
2013-01-31 23:04:00,16.9,13.2,29.90,WNW,298,7.9,9.2,85,0.00,-SN,,0.00,0.0,WeatherDisplay:10.37,2013-02-01 04:04:00,
2013-01-31 23:09:00,16.9,13.2,29.90,West,281,4.1,4.6,85,0.00,-SN,,0.00,0.0,WeatherDisplay:10.37,2013-02-01 04:09:00,
2013-01-31 23:14:00,16.9,13.2,29.90,WNW,284,4.0,4.6,85,0.00,-SN,,0.00,0.0,WeatherDisplay:10.37,2013-02-01 04:14:00,
2013-01-31 23:19:00,16.9,13.4,29.90,WSW,258,4.3,8.1,86,0.00,-SN,,0.00,0.0,WeatherDisplay:10.37,2013-02-01 04:19:00,
2013-01-31 23:25:00,16.9,13.4,29.90,West,268,4.2,4.5,86,0.00,-SN,,0.00,0.0,WeatherDisplay:10.37,2013-02-01 04:25:00,
2013-01-31 23:30:00,16.7,13.2,29.90,WNW,285,5.0,8.1,86,0.00,-SN,,0.00,0.0,WeatherDisplay:10.37,2013-02-01 04:30:00,
2013-01-31 23:35:00,16.7,13.0,29.90,WNW,285,2.5,8.1,85,0.00,-SN,,0.00,0.0,WeatherDisplay:10.37,2013-02-01 04:35:00,
2013-01-31 23:40:00,16.7,13.0,29.90,WSW,256,5.8,9.2,85,0.00,-SN,,0.00,0.0,WeatherDisplay:10.37,2013-02-01 04:40:00,
2013-01-31 23:45:00,16.9,13.2,29.90,West,275,4.5,4.6,85,0.00,-SN,,0.00,0.0,WeatherDisplay:10.37,2013-02-01 04:45:00,
2013-01-31 23:50:00,16.9,13.2,29.90,WNW,291,11.3,15.0,85,0.00,-SN,,0.00,0.0,WeatherDisplay:10.37,2013-02-01 04:50:00,
2013-01-31 23:55:00,16.9,13.2,29.90,WNW,299,6.3,6.3,85,0.00,-SN,,0.00,0.0,WeatherDisplay:10.37,2013-02-01 04:55:00,